Time;durP1;ratioP1;P1;durP2;ratioP2;P2;SDS_P1;SDS_P2;PMS_P1;PMS_P2;Temp;Humidity;BMP_temperature;BMP_pressure;BME280_temperature;BME280_humidity;BME280_pressure;Samples;Min_cycle;Max_cycle;Signal;HPM_P1;HPM_P2
2022/01/19 04:01:35;;;;;;;113.47;31.23;;;3.40;99.90;;;;;;5469433;22;20361;-79
2022/01/19 04:06:53;;;;;;;132.68;33.78;;;3.30;99.90;;;;;;4973016;28;20054;-79
2022/01/19 04:09:18;;;;;;;143.05;33.70;;;3.30;99.90;;;;;;4973078;28;20043;-78
2022/01/19 04:11:43;;;;;;;132.65;32.42;;;3.30;99.90;;;;;;4972891;28;20034;-77
2022/01/19 04:16:35;;;;;;;124.28;32.92;;;3.30;99.90;;;;;;4973181;28;20244;-78
2022/01/19 04:19:24;;;;;;;132.80;34.05;;;3.20;99.90;;;;;;4972825;28;20045;-76
2022/01/19 04:21:47;;;;;;;148.23;35.40;;;3.10;99.90;;;;;;4973141;28;20051;-76
2022/01/19 04:24:12;;;;;;;218.63;39.10;;;3.10;99.90;;;;;;4972815;28;20437;-78
2022/01/19 04:26:38;;;;;;;143.45;30.40;;;3.10;99.90;;;;;;4972808;28;20578;-77
2022/01/19 04:29:03;;;;;;;224.23;36.97;;;3.10;99.90;;;;;;4973087;28;20046;-79
2022/01/19 04:31:29;;;;;;;280.00;39.67;;;3.00;99.90;;;;;;4973985;28;20078;-78
2022/01/19 04:33:59;;;;;;;229.20;35.38;;;3.00;99.90;;;;;;4973161;28;20078;-79
2022/01/19 04:44:35;;;;;;;177.70;33.67;;;2.90;99.90;;;;;;4972604;28;20089;-79
2022/01/19 04:47:35;;;;;;;141.95;33.28;;;2.90;99.90;;;;;;4972464;28;20132;-79
2022/01/19 05:03:17;;;;;;;130.23;33.00;;;2.90;99.90;;;;;;4975994;28;20047;-80
2022/01/19 05:05:53;;;;;;;117.07;33.20;;;2.90;99.90;;;;;;4976174;28;20373;-80
2022/01/19 05:13:34;;;;;;;117.50;34.03;;;2.90;99.90;;;;;;4975749;28;20058;-80
2022/01/19 05:16:00;;;;;;;103.53;32.43;;;2.80;99.90;;;;;;4975905;28;20050;-77
2022/01/19 05:18:26;;;;;;;106.13;32.47;;;2.90;99.90;;;;;;4975636;28;20109;-79
2022/01/19 05:20:51;;;;;;;107.55;32.67;;;2.90;99.90;;;;;;4975768;28;20145;-80
2022/01/19 05:23:17;;;;;;;96.35;31.42;;;3.00;99.90;;;;;;4959509;28;20443;-79
2022/01/19 05:25:44;;;;;;;94.75;31.58;;;3.00;99.90;;;;;;4959382;28;20043;-79
2022/01/19 05:28:10;;;;;;;94.38;32.20;;;3.00;99.90;;;;;;4975557;28;20043;-78
2022/01/19 05:30:35;;;;;;;91.63;30.92;;;3.00;99.90;;;;;;4975279;28;20035;-76
2022/01/19 05:33:01;;;;;;;92.35;30.70;;;3.00;99.90;;;;;;4959319;28;20130;-80
2022/01/19 05:35:27;;;;;;;94.20;29.88;;;3.00;99.90;;;;;;4976613;28;20030;-78
2022/01/19 05:37:54;;;;;;;91.20;30.48;;;3.00;99.90;;;;;;4976897;28;20043;-77
2022/01/19 05:40:20;;;;;;;94.03;31.23;;;3.00;99.90;;;;;;4975207;28;20129;-78
2022/01/19 05:42:48;;;;;;;89.80;30.75;;;3.00;99.90;;;;;;4975237;28;20125;-78
2022/01/19 05:45:14;;;;;;;93.38;30.25;;;3.10;99.90;;;;;;4975222;28;20046;-79
2022/01/19 05:47:39;;;;;;;86.53;29.90;;;3.10;99.90;;;;;;4975147;28;20138;-79
2022/01/19 05:50:05;;;;;;;91.38;31.60;;;3.10;99.90;;;;;;4974901;28;20050;-80
2022/01/19 05:52:31;;;;;;;91.55;30.85;;;3.10;99.90;;;;;;4975020;28;20090;-77
2022/01/19 05:54:57;;;;;;;86.70;30.58;;;3.10;99.90;;;;;;4975322;28;20419;-80
2022/01/19 05:57:23;;;;;;;89.97;31.90;;;3.10;99.90;;;;;;4975277;28;20061;-79
2022/01/19 05:59:49;;;;;;;91.95;32.55;;;3.10;99.90;;;;;;4975049;28;20042;-78
2022/01/19 06:02:16;;;;;;;91.97;32.72;;;3.20;99.90;;;;;;4974907;28;20085;-78
2022/01/19 06:04:42;;;;;;;98.10;32.60;;;3.20;99.90;;;;;;4974861;28;20047;-80
2022/01/19 06:07:08;;;;;;;103.95;34.15;;;3.20;99.90;;;;;;4975991;28;20043;-80
2022/01/19 06:09:36;;;;;;;87.93;30.52;;;3.20;99.90;;;;;;4974749;28;20042;-78
2022/01/19 06:12:08;;;;;;;87.00;31.92;;;3.30;99.90;;;;;;4957525;28;20521;-77
2022/01/19 06:14:38;;;;;;;85.50;31.33;;;3.30;99.90;;;;;;4975242;28;20054;-79
2022/01/19 06:17:05;;;;;;;87.28;30.48;;;3.30;99.90;;;;;;4974627;28;20073;-77
2022/01/19 06:19:31;;;;;;;96.30;33.17;;;3.30;99.90;;;;;;4958395;28;20047;-79
2022/01/19 06:21:57;;;;;;;94.38;32.15;;;3.30;99.90;;;;;;4974704;28;20050;-79
2022/01/19 06:24:22;;;;;;;101.28;33.53;;;3.30;99.90;;;;;;4974461;28;20046;-77
2022/01/19 06:26:48;;;;;;;89.97;32.50;;;3.30;99.90;;;;;;4974397;28;20080;-79
2022/01/19 06:29:14;;;;;;;96.25;33.35;;;3.30;99.90;;;;;;4974536;28;20057;-79
2022/01/19 06:31:40;;;;;;;93.68;31.80;;;3.40;99.90;;;;;;4974269;28;20038;-77
2022/01/19 06:34:05;;;;;;;87.63;31.92;;;3.40;99.90;;;;;;4958136;28;20549;-77
2022/01/19 06:36:31;;;;;;;87.22;32.25;;;3.40;99.90;;;;;;4974245;28;20046;-79
2022/01/19 06:38:57;;;;;;;88.90;32.53;;;3.40;99.90;;;;;;4974311;28;20070;-78
2022/01/19 06:41:22;;;;;;;83.30;30.15;;;3.40;99.90;;;;;;4974065;28;20047;-79
2022/01/19 06:43:48;;;;;;;88.07;33.72;;;3.40;99.90;;;;;;4975179;28;20407;-78
2022/01/19 06:46:14;;;;;;;91.57;33.83;;;3.40;99.90;;;;;;4973883;28;20051;-79
2022/01/19 06:48:39;;;;;;;89.97;32.78;;;3.50;99.90;;;;;;4957760;28;20043;-78
2022/01/19 06:51:05;;;;;;;90.43;33.03;;;3.50;99.90;;;;;;4975063;28;20039;-81
2022/01/19 06:53:30;;;;;;;87.07;31.40;;;3.50;99.90;;;;;;4974103;28;20082;-80
2022/01/19 06:55:57;;;;;;;88.55;32.85;;;3.50;99.90;;;;;;4973785;28;20039;-79
2022/01/19 06:58:27;;;;;;;91.97;33.63;;;3.50;99.90;;;;;;4974171;28;20438;-79
2022/01/19 07:00:54;;;;;;;86.47;32.60;;;3.60;99.90;;;;;;4957547;28;20042;-78
2022/01/19 07:03:20;;;;;;;98.63;33.90;;;3.60;99.90;;;;;;4973865;28;20170;-79
2022/01/19 07:05:46;;;;;;;86.75;32.72;;;3.60;99.90;;;;;;4973706;28;20137;-78
2022/01/19 07:08:11;;;;;;;87.38;32.38;;;3.60;99.90;;;;;;4973707;28;20050;-78
2022/01/19 07:10:37;;;;;;;86.85;33.05;;;3.60;99.90;;;;;;4974849;28;20031;-79
2022/01/19 07:13:04;;;;;;;91.38;32.85;;;3.60;99.90;;;;;;4975036;28;20102;-80
2022/01/19 07:15:29;;;;;;;90.47;33.97;;;3.70;99.90;;;;;;4973619;28;20517;-78
2022/01/19 07:17:55;;;;;;;88.43;32.97;;;3.70;99.90;;;;;;4973895;28;20039;-80
2022/01/19 07:20:21;;;;;;;97.90;34.08;;;3.70;99.90;;;;;;4973393;28;20045;-78
2022/01/19 07:22:48;;;;;;;90.00;33.35;;;3.70;99.90;;;;;;4973506;28;20398;-81
2022/01/19 07:25:14;;;;;;;96.32;33.25;;;3.70;99.90;;;;;;4974127;28;20035;-77
2022/01/19 07:27:40;;;;;;;86.47;32.78;;;3.70;99.90;;;;;;4973280;28;20046;-78
2022/01/19 07:30:07;;;;;;;78.63;30.13;;;3.70;99.90;;;;;;4973360;28;20034;-77
2022/01/19 07:32:34;;;;;;;87.68;31.92;;;3.70;99.90;;;;;;4973546;28;20106;-80
2022/01/19 07:35:01;;;;;;;92.95;34.08;;;3.70;99.90;;;;;;4973214;28;20042;-80
2022/01/19 07:37:27;;;;;;;88.38;33.42;;;3.70;99.90;;;;;;4974815;28;20085;-79
2022/01/19 07:39:53;;;;;;;93.20;33.45;;;3.80;99.90;;;;;;4973372;28;20434;-80
2022/01/19 07:42:19;;;;;;;98.15;37.22;;;3.70;99.90;;;;;;4973155;28;20085;-77
2022/01/19 07:44:45;;;;;;;89.20;33.80;;;3.80;99.90;;;;;;4974760;28;20490;-79
2022/01/19 07:47:11;;;;;;;91.35;32.75;;;3.80;99.90;;;;;;4972615;28;20078;-78
2022/01/19 07:49:36;;;;;;;104.90;35.35;;;3.80;99.90;;;;;;4972159;28;20047;-78
2022/01/19 07:52:02;;;;;;;96.57;35.35;;;3.80;99.90;;;;;;4972193;28;20519;-80
2022/01/19 07:54:28;;;;;;;97.32;35.40;;;3.90;99.90;;;;;;4972206;28;20050;-79
2022/01/19 07:56:53;;;;;;;93.03;33.45;;;3.80;99.90;;;;;;4972244;28;20042;-77
2022/01/19 07:59:19;;;;;;;97.30;34.10;;;3.80;99.90;;;;;;4972893;28;20483;-78
2022/01/19 08:01:45;;;;;;;112.25;35.58;;;3.80;99.90;;;;;;4971953;28;20060;-78
2022/01/19 08:04:11;;;;;;;97.43;34.95;;;3.80;99.90;;;;;;4973729;28;20043;-80
2022/01/19 08:06:36;;;;;;;97.45;34.05;;;3.80;99.90;;;;;;4971920;28;20049;-79
2022/01/19 08:09:04;;;;;;;99.70;36.33;;;3.80;99.90;;;;;;4973750;28;20090;-79
2022/01/19 08:11:29;;;;;;;105.28;36.97;;;3.80;99.90;;;;;;4973710;28;20468;-79
2022/01/19 08:13:55;;;;;;;100.55;35.78;;;3.90;99.90;;;;;;4973602;28;20047;-77
2022/01/19 08:16:21;;;;;;;103.70;37.80;;;3.90;99.90;;;;;;4973126;28;20490;-79
2022/01/19 08:18:47;;;;;;;102.63;35.58;;;3.90;99.90;;;;;;4956042;28;20454;-78
2022/01/19 08:21:13;;;;;;;107.22;37.55;;;3.90;99.90;;;;;;4972260;28;20043;-77
2022/01/19 08:23:38;;;;;;;101.47;36.15;;;3.90;99.90;;;;;;4973347;28;20137;-78
2022/01/19 08:26:04;;;;;;;113.32;37.28;;;3.90;99.90;;;;;;4971477;28;20093;-78
2022/01/19 08:28:30;;;;;;;104.75;37.90;;;3.90;99.90;;;;;;4971958;28;20055;-78
2022/01/19 08:30:55;;;;;;;114.10;37.60;;;3.90;99.90;;;;;;4971618;28;20469;-77
2022/01/19 08:33:21;;;;;;;100.15;37.63;;;4.00;99.90;;;;;;4971563;28;20406;-80
2022/01/19 08:35:46;;;;;;;108.68;38.70;;;4.00;99.90;;;;;;4973749;28;20031;-79
2022/01/19 08:38:12;;;;;;;103.15;36.63;;;4.00;99.90;;;;;;4976855;28;20437;-79
2022/01/19 08:40:38;;;;;;;107.43;39.22;;;4.00;99.90;;;;;;4975422;28;20042;-78
2022/01/19 08:43:05;;;;;;;102.43;37.22;;;4.00;99.90;;;;;;4976877;28;20047;-78
2022/01/19 08:45:33;;;;;;;112.78;39.47;;;4.10;99.90;;;;;;4976747;28;20046;-80
2022/01/19 08:47:59;;;;;;;102.25;37.55;;;4.00;99.90;;;;;;4976429;28;20491;-79
2022/01/19 08:50:24;;;;;;;115.78;41.17;;;4.10;99.90;;;;;;4976650;28;20043;-79
2022/01/19 08:52:51;;;;;;;100.53;39.25;;;4.10;99.90;;;;;;4976684;28;20431;-78
2022/01/19 08:55:17;;;;;;;99.32;37.78;;;4.00;99.90;;;;;;4975133;28;20117;-79
2022/01/19 08:57:44;;;;;;;111.95;41.80;;;4.10;99.90;;;;;;4976737;28;20035;-79
2022/01/19 09:00:12;;;;;;;108.65;40.83;;;4.10;99.90;;;;;;4974954;28;20046;-79
2022/01/19 09:02:39;;;;;;;104.13;37.40;;;4.10;99.90;;;;;;4974945;28;20042;-76
2022/01/19 09:05:05;;;;;;;98.88;37.92;;;4.10;99.90;;;;;;4976547;28;20383;-78
2022/01/19 09:07:31;;;;;;;105.35;38.25;;;4.10;99.90;;;;;;4974815;28;20501;-79
2022/01/19 09:09:57;;;;;;;95.88;37.97;;;4.10;99.90;;;;;;4976405;28;20118;-79
2022/01/19 09:12:23;;;;;;;101.95;36.70;;;4.10;99.90;;;;;;4974743;28;20046;-81
2022/01/19 09:14:49;;;;;;;102.25;39.20;;;4.10;99.90;;;;;;4976104;28;20046;-80
2022/01/19 09:17:15;;;;;;;99.18;37.53;;;4.10;99.90;;;;;;4974746;28;20050;-80
2022/01/19 09:19:40;;;;;;;101.75;39.95;;;4.10;99.90;;;;;;4976284;28;20101;-80
2022/01/19 09:22:09;;;;;;;105.40;38.65;;;4.10;99.90;;;;;;4974905;28;20039;-78
2022/01/19 09:24:36;;;;;;;92.38;38.05;;;4.10;99.90;;;;;;4974994;28;20054;-79
2022/01/19 09:27:02;;;;;;;96.30;38.45;;;4.10;99.90;;;;;;4974587;28;20055;-78
2022/01/19 09:29:27;;;;;;;87.70;35.75;;;4.10;99.90;;;;;;4974856;28;20395;-76
2022/01/19 09:31:55;;;;;;;98.63;40.38;;;4.10;99.90;;;;;;4974401;28;20039;-77
2022/01/19 09:34:21;;;;;;;98.45;39.28;;;4.10;99.90;;;;;;4974453;28;20061;-85
2022/01/19 09:36:48;;;;;;;91.60;37.72;;;4.10;99.90;;;;;;4974862;28;20422;-79
2022/01/19 09:39:23;;;;;;;94.72;39.63;;;4.10;99.90;;;;;;4974324;28;20047;-80
2022/01/19 09:41:49;;;;;;;98.82;39.05;;;4.10;99.90;;;;;;4974671;28;20039;-79
2022/01/19 09:44:21;;;;;;;97.65;39.72;;;4.20;99.90;;;;;;4974269;28;20062;-80
2022/01/19 09:46:48;;;;;;;91.57;37.92;;;4.20;99.90;;;;;;4958205;28;20359;-80
2022/01/19 09:49:17;;;;;;;105.63;38.33;;;4.20;99.90;;;;;;4974391;28;20117;-79
2022/01/19 09:51:45;;;;;;;94.63;37.00;;;4.20;99.90;;;;;;4974001;28;20039;-78
2022/01/19 09:54:16;;;;;;;84.65;36.50;;;4.20;99.90;;;;;;4958651;28;20050;-79
2022/01/19 09:56:42;;;;;;;92.30;39.03;;;4.20;99.90;;;;;;4974940;28;20043;-79
2022/01/19 09:59:08;;;;;;;93.53;38.28;;;4.20;99.90;;;;;;4974901;28;20126;-79
2022/01/19 10:01:34;;;;;;;85.97;36.58;;;4.30;99.90;;;;;;4974559;28;20038;-79
2022/01/19 10:04:16;;;;;;;89.22;37.17;;;4.30;99.90;;;;;;4974834;28;20108;-79
2022/01/19 10:06:42;;;;;;;90.32;37.47;;;4.40;99.90;;;;;;4958512;28;20043;-79
2022/01/19 10:09:08;;;;;;;83.82;35.70;;;4.30;99.90;;;;;;4974793;28;20052;-81
2022/01/19 10:19:35;;;;;;;84.18;38.33;;;4.50;99.90;;;;;;4974939;28;20043;-79
2022/01/19 10:22:09;;;;;;;89.55;40.00;;;4.50;99.90;;;;;;4974446;28;20039;-80
2022/01/19 10:24:39;;;;;;;77.40;34.78;;;4.50;99.90;;;;;;4974400;28;20089;-78
2022/01/19 10:27:21;;;;;;;90.63;38.25;;;4.60;99.90;;;;;;4958476;28;20169;-80
2022/01/19 10:30:04;;;;;;;86.40;39.10;;;4.60;99.90;;;;;;4974723;28;20054;-81
2022/01/19 10:32:33;;;;;;;95.07;42.22;;;4.70;99.90;;;;;;4974667;28;20134;-79
2022/01/19 10:35:26;;;;;;;92.72;41.25;;;4.70;99.90;;;;;;4975948;28;20110;-79
2022/01/19 10:38:14;;;;;;;88.32;38.72;;;4.70;99.90;;;;;;4974554;28;20050;-81
2022/01/19 10:40:42;;;;;;;81.80;38.80;;;4.80;99.90;;;;;;4974717;28;20042;-81
2022/01/19 10:43:48;;;;;;;89.57;39.53;;;4.80;99.90;;;;;;4974138;28;20077;-80
2022/01/19 10:46:25;;;;;;;92.70;40.47;;;4.80;99.90;;;;;;4881462;29;20049;-81
2022/01/19 10:48:58;;;;;;;92.85;40.60;;;4.80;99.90;;;;;;4881390;29;20510;-80
2022/01/19 10:51:28;;;;;;;92.40;39.58;;;4.80;99.90;;;;;;4943822;28;20057;-80
2022/01/19 10:54:22;;;;;;;85.05;39.67;;;4.80;99.90;;;;;;4974008;28;20129;-81
2022/01/19 10:56:54;;;;;;;87.32;38.15;;;4.80;99.90;;;;;;4975031;28;20502;-81
2022/01/19 10:59:29;;;;;;;84.85;39.30;;;4.80;99.90;;;;;;4974453;28;20046;-81
2022/01/19 11:01:59;;;;;;;91.43;40.58;;;4.80;99.90;;;;;;4973799;28;20038;-81
2022/01/19 11:04:33;;;;;;;92.10;38.13;;;4.80;99.90;;;;;;4974144;28;20427;-79
2022/01/19 11:07:11;;;;;;;93.78;42.33;;;4.80;99.90;;;;;;4973616;28;20098;-78
2022/01/19 11:09:45;;;;;;;98.13;42.25;;;4.70;99.90;;;;;;4973730;28;20054;-80
2022/01/19 11:12:15;;;;;;;90.45;39.92;;;4.70;99.90;;;;;;4975150;28;20038;-80
2022/01/19 11:14:42;;;;;;;88.53;40.53;;;4.70;99.90;;;;;;4973618;28;20101;-80
2022/01/19 11:17:09;;;;;;;99.68;42.33;;;4.70;99.90;;;;;;4973501;28;20117;-81
2022/01/19 11:19:46;;;;;;;96.43;42.90;;;4.70;99.90;;;;;;4973563;28;20439;-81
2022/01/19 11:22:14;;;;;;;103.28;43.47;;;4.70;99.90;;;;;;4973285;28;20053;-80
2022/01/19 11:24:51;;;;;;;103.53;42.88;;;4.70;99.90;;;;;;4973294;28;20043;-79
2022/01/19 11:27:17;;;;;;;102.20;41.75;;;4.70;99.90;;;;;;4957334;28;20042;-80
2022/01/19 11:29:43;;;;;;;98.00;41.17;;;4.80;99.90;;;;;;4973364;28;20046;-79
2022/01/19 11:32:18;;;;;;;102.55;44.00;;;4.70;99.90;;;;;;4957137;28;20097;-81
2022/01/19 11:34:49;;;;;;;105.45;43.28;;;4.70;99.90;;;;;;4973271;28;20078;-81
2022/01/19 11:37:31;;;;;;;101.05;44.33;;;4.80;99.90;;;;;;4957247;28;20041;-81
2022/01/19 11:40:07;;;;;;;106.55;44.55;;;4.80;99.90;;;;;;4973670;28;20078;-80
2022/01/19 11:42:33;;;;;;;113.18;44.92;;;4.80;99.90;;;;;;4975553;28;20038;-80
2022/01/19 11:44:59;;;;;;;111.25;44.85;;;4.80;99.90;;;;;;4977604;28;20142;-80
2022/01/19 11:47:31;;;;;;;96.15;44.83;;;4.90;99.90;;;;;;4984589;28;20058;-75
2022/01/19 11:49:59;;;;;;;106.88;39.47;;;4.90;99.90;;;;;;4987249;28;20051;-79
2022/01/19 11:52:35;;;;;;;98.40;40.75;;;4.90;99.90;;;;;;4975275;28;20041;-80
2022/01/19 11:55:16;;;;;;;95.72;44.38;;;5.00;99.90;;;;;;4973897;28;20509;-83
2022/01/19 11:57:44;;;;;;;105.70;44.00;;;5.00;99.90;;;;;;4975198;28;20038;-80
2022/01/19 12:00:32;;;;;;;102.45;45.45;;;5.00;99.90;;;;;;4973275;28;20048;-78
2022/01/19 12:02:59;;;;;;;102.15;43.80;;;5.00;99.90;;;;;;4974788;28;20047;-78
2022/01/19 12:05:35;;;;;;;101.40;44.33;;;5.00;99.90;;;;;;4973129;28;20046;-79
2022/01/19 12:08:18;;;;;;;99.43;42.83;;;5.00;99.90;;;;;;4972949;28;20047;-80
2022/01/19 12:10:47;;;;;;;104.97;43.47;;;5.10;99.90;;;;;;4959860;28;20042;-81
2022/01/19 12:16:09;;;;;;;97.57;40.85;;;5.10;99.90;;;;;;4977214;28;20046;-78
2022/01/19 12:18:47;;;;;;;95.65;41.55;;;5.10;99.90;;;;;;4976929;28;20117;-80
2022/01/19 12:21:20;;;;;;;100.38;41.67;;;5.10;99.90;;;;;;4977068;28;20450;-80
2022/01/19 12:23:47;;;;;;;105.00;44.13;;;5.10;99.90;;;;;;4961091;28;20137;-80
2022/01/19 12:26:14;;;;;;;99.22;42.58;;;5.10;99.90;;;;;;4976580;28;20038;-80
2022/01/19 12:28:44;;;;;;;104.97;44.63;;;5.10;99.90;;;;;;4978049;28;20062;-80
2022/01/19 12:31:25;;;;;;;98.03;42.22;;;5.10;99.90;;;;;;4977923;28;20460;-79
2022/01/19 12:34:04;;;;;;;102.90;44.70;;;5.10;99.90;;;;;;4976586;28;20051;-81
2022/01/19 12:36:54;;;;;;;105.22;42.35;;;5.10;99.90;;;;;;4960478;28;20129;-82
2022/01/19 12:39:25;;;;;;;95.90;40.97;;;5.10;99.90;;;;;;4976361;28;20074;-82
2022/01/19 12:42:00;;;;;;;94.80;40.17;;;5.00;99.90;;;;;;4976451;28;20042;-81
2022/01/19 12:44:34;;;;;;;91.25;40.15;;;5.10;99.90;;;;;;4976389;28;20055;-81
2022/01/19 12:47:04;;;;;;;89.57;39.00;;;5.10;99.90;;;;;;4976391;28;20074;-84
2022/01/19 12:49:34;;;;;;;102.88;42.55;;;5.10;99.90;;;;;;4976686;28;20049;-82
2022/01/19 12:52:14;;;;;;;101.38;44.67;;;5.10;99.90;;;;;;4976107;28;20089;-82
2022/01/19 12:54:40;;;;;;;106.93;45.17;;;5.00;99.90;;;;;;4977506;28;20087;-81
2022/01/19 12:57:06;;;;;;;104.20;43.28;;;5.10;99.90;;;;;;4977452;28;20499;-82
2022/01/19 12:59:33;;;;;;;110.68;46.47;;;5.10;99.90;;;;;;4976095;28;20039;-78
2022/01/19 13:01:59;;;;;;;104.78;42.42;;;5.10;99.90;;;;;;4977285;28;20053;-82
2022/01/19 13:04:26;;;;;;;107.45;44.67;;;5.20;99.90;;;;;;4976268;28;20479;-83
2022/01/19 13:06:54;;;;;;;105.65;43.75;;;5.20;99.90;;;;;;4976639;28;20050;-79
2022/01/19 13:09:28;;;;;;;103.10;42.95;;;5.20;99.90;;;;;;4966727;28;20138;-83
2022/01/19 13:11:55;;;;;;;90.43;38.75;;;5.30;99.90;;;;;;4969583;28;20043;-80
2022/01/19 13:14:23;;;;;;;87.30;38.33;;;5.30;99.90;;;;;;4967240;28;20043;-85
2022/01/19 13:16:53;;;;;;;87.15;39.47;;;5.40;99.90;;;;;;4967663;28;20119;-83
2022/01/19 13:19:21;;;;;;;90.40;39.40;;;5.40;99.90;;;;;;4965015;28;20058;-83
2022/01/19 13:21:50;;;;;;;82.78;35.28;;;5.40;99.90;;;;;;4962971;28;20047;-83
2022/01/19 13:24:29;;;;;;;80.82;35.15;;;5.40;99.90;;;;;;4957562;29;20388;-83
2022/01/19 13:26:59;;;;;;;89.55;37.92;;;5.30;99.90;;;;;;4958011;29;20082;-81
2022/01/19 13:29:34;;;;;;;88.03;38.15;;;5.30;99.90;;;;;;4941237;29;20043;-84
2022/01/19 13:32:09;;;;;;;89.88;35.80;;;5.30;99.90;;;;;;4956438;29;20039;-86
2022/01/19 13:34:55;;;;;;;90.17;36.87;;;5.30;99.90;;;;;;4956378;29;20051;-85
2022/01/19 13:37:24;;;;;;;87.45;37.60;;;5.30;99.90;;;;;;4939936;29;20468;-85
2022/01/19 13:39:58;;;;;;;98.57;39.35;;;5.30;99.90;;;;;;4956059;29;20157;-79
2022/01/19 13:42:42;;;;;;;88.03;38.63;;;5.30;99.90;;;;;;4956314;29;20055;-84
2022/01/19 13:45:30;;;;;;;90.18;38.13;;;5.30;99.90;;;;;;4956189;29;20043;-85
2022/01/19 13:50:31;;;;;;;85.63;36.47;;;5.40;99.90;;;;;;4956780;29;20051;-83
2022/01/19 13:52:57;;;;;;;84.82;37.60;;;5.30;99.90;;;;;;4955850;29;20051;-85
2022/01/19 13:55:24;;;;;;;81.80;35.20;;;5.30;99.90;;;;;;4956004;29;20075;-85
2022/01/19 13:57:50;;;;;;;79.95;35.67;;;5.30;99.90;;;;;;4956367;29;20071;-85
2022/01/19 14:00:19;;;;;;;83.00;34.78;;;5.40;99.90;;;;;;4956753;29;20039;-86
2022/01/19 14:02:57;;;;;;;80.68;34.63;;;5.30;99.90;;;;;;4955293;29;20066;-83
2022/01/19 14:05:40;;;;;;;87.93;35.38;;;5.30;99.90;;;;;;4954711;29;20054;-84
2022/01/19 14:08:06;;;;;;;92.38;37.70;;;5.30;99.90;;;;;;4964941;28;20042;-84
2022/01/19 14:10:43;;;;;;;82.82;34.67;;;5.30;99.90;;;;;;4973913;28;20046;-86
2022/01/19 14:13:29;;;;;;;75.53;32.22;;;5.30;99.90;;;;;;4975267;28;20086;-85
2022/01/19 14:16:25;;;;;;;93.75;34.47;;;5.30;99.90;;;;;;4975079;28;20050;-85
2022/01/19 14:19:07;;;;;;;84.32;32.75;;;5.30;99.90;;;;;;4958019;28;20442;-85
2022/01/19 14:21:33;;;;;;;85.28;35.28;;;5.30;99.90;;;;;;4957516;28;20042;-85
2022/01/19 14:24:00;;;;;;;86.85;34.35;;;5.30;99.90;;;;;;4973591;28;20058;-84
2022/01/19 14:26:27;;;;;;;95.13;37.35;;;5.20;99.90;;;;;;4973581;28;20051;-83
2022/01/19 14:29:13;;;;;;;86.25;34.50;;;5.20;99.90;;;;;;4973819;28;20537;-82
2022/01/19 14:31:52;;;;;;;81.50;33.67;;;5.20;99.90;;;;;;4970400;28;20097;-84
2022/01/19 14:34:38;;;;;;;69.53;25.50;;;5.20;99.90;;;;;;4969772;28;20046;-85
2022/01/19 14:37:15;;;;;;;84.30;34.63;;;5.30;99.90;;;;;;4973252;28;20039;-83
2022/01/19 14:40:09;;;;;;;81.95;33.67;;;5.30;99.90;;;;;;4973135;28;20050;-84
2022/01/19 14:42:37;;;;;;;77.28;29.10;;;5.20;99.90;;;;;;4972894;28;20057;-84
2022/01/19 14:45:24;;;;;;;78.88;31.05;;;5.30;99.90;;;;;;4972890;28;20042;-84
2022/01/19 14:47:54;;;;;;;72.10;29.75;;;5.30;99.90;;;;;;4951208;28;20045;-84
2022/01/19 14:50:32;;;;;;;78.38;30.23;;;5.30;99.90;;;;;;4973744;28;20129;-83
2022/01/19 14:52:58;;;;;;;71.90;26.80;;;5.30;99.90;;;;;;4973483;28;20079;-84
2022/01/19 14:55:28;;;;;;;75.03;29.52;;;5.40;99.90;;;;;;4974008;28;20054;-84
2022/01/19 14:57:54;;;;;;;77.28;29.60;;;5.40;99.90;;;;;;4972720;28;20062;-81
2022/01/19 15:00:21;;;;;;;84.97;31.60;;;5.30;99.90;;;;;;4952872;28;20089;-83
2022/01/19 15:02:51;;;;;;;91.68;33.42;;;5.40;99.90;;;;;;4971736;28;20089;-83
2022/01/19 15:05:20;;;;;;;102.30;36.03;;;5.40;99.90;;;;;;4957414;28;20049;-83
2022/01/19 15:07:47;;;;;;;88.60;32.78;;;5.30;99.90;;;;;;4971166;28;20562;-84
2022/01/19 15:10:13;;;;;;;100.93;35.97;;;5.30;99.90;;;;;;4938401;29;20122;-84
2022/01/19 15:12:39;;;;;;;96.13;35.03;;;5.40;99.90;;;;;;4954021;28;20455;-84
2022/01/19 15:15:08;;;;;;;96.00;32.97;;;5.30;99.90;;;;;;4973494;28;20392;-85
2022/01/19 15:17:38;;;;;;;90.28;32.33;;;5.40;99.90;;;;;;4972788;28;20041;-84
2022/01/19 15:20:05;;;;;;;104.28;34.83;;;5.30;99.90;;;;;;4957375;28;20097;-84
2022/01/19 15:22:31;;;;;;;95.72;33.20;;;5.30;99.90;;;;;;4973489;28;20102;-85
2022/01/19 15:24:56;;;;;;;109.18;34.65;;;5.40;99.90;;;;;;4973669;28;20051;-85
2022/01/19 15:27:22;;;;;;;91.97;32.45;;;5.40;99.90;;;;;;4973434;28;20427;-84
2022/01/19 15:29:49;;;;;;;105.90;34.15;;;5.40;99.90;;;;;;4973495;28;20443;-84
2022/01/19 15:32:16;;;;;;;91.38;32.83;;;5.50;99.90;;;;;;4974751;28;20070;-83
2022/01/19 15:34:42;;;;;;;85.95;29.13;;;5.50;99.90;;;;;;4973719;28;20431;-83
2022/01/19 15:37:07;;;;;;;84.75;30.13;;;5.50;99.90;;;;;;4973242;28;20042;-86
2022/01/19 15:39:34;;;;;;;79.18;28.15;;;5.60;99.90;;;;;;4973651;28;20035;-83
2022/01/19 15:42:00;;;;;;;72.72;27.48;;;5.70;99.90;;;;;;4973757;28;20399;-83
2022/01/19 15:44:26;;;;;;;78.22;27.92;;;5.70;99.90;;;;;;4972908;28;20039;-84
2022/01/19 15:46:52;;;;;;;78.95;26.92;;;5.80;99.90;;;;;;4976855;28;20399;-83
2022/01/19 15:49:18;;;;;;;80.32;25.88;;;5.80;99.90;;;;;;4978983;28;20110;-84
2022/01/19 15:51:44;;;;;;;61.83;24.58;;;5.80;99.90;;;;;;4985613;28;20062;-77
2022/01/19 15:54:11;;;;;;;62.47;22.23;;;5.90;99.90;;;;;;4989734;28;20039;-83
2022/01/19 15:56:39;;;;;;;71.20;23.23;;;6.00;99.90;;;;;;4976192;28;20053;-84
2022/01/19 15:59:05;;;;;;;54.58;20.75;;;6.00;99.90;;;;;;4974602;28;20431;-83
2022/01/19 16:01:30;;;;;;;59.17;21.52;;;6.10;99.90;;;;;;4973694;28;20093;-83
2022/01/19 16:03:56;;;;;;;59.92;20.92;;;6.20;99.90;;;;;;4973747;28;20133;-84
2022/01/19 16:06:22;;;;;;;50.42;19.08;;;6.20;99.90;;;;;;4973421;28;20051;-84
2022/01/19 16:08:49;;;;;;;45.50;18.20;;;6.30;99.90;;;;;;4974587;28;20448;-84
2022/01/19 16:11:14;;;;;;;44.33;17.38;;;6.30;99.90;;;;;;4973154;28;20043;-84
2022/01/19 16:13:40;;;;;;;40.90;15.45;;;6.40;99.90;;;;;;4973220;28;20446;-84
2022/01/19 16:16:06;;;;;;;52.22;17.05;;;6.40;99.90;;;;;;4973215;28;20458;-84
2022/01/19 16:18:31;;;;;;;44.80;14.65;;;6.40;99.90;;;;;;4957416;28;20034;-86
2022/01/19 16:20:57;;;;;;;37.78;13.80;;;6.50;99.90;;;;;;4972935;28;20069;-83
2022/01/19 16:26:09;;;;;;;46.90;13.50;;;6.60;99.90;;;;;;4973009;28;20058;-83
2022/01/19 16:28:40;;;;;;;38.70;10.48;;;6.60;99.90;;;;;;4972780;28;20046;-83
2022/01/19 16:31:06;;;;;;;35.45;10.75;;;6.60;99.90;;;;;;4973137;28;20049;-82
2022/01/19 16:33:34;;;;;;;26.88;7.13;;;6.60;99.90;;;;;;4973018;28;20114;-85
2022/01/19 16:36:04;;;;;;;28.80;6.43;;;6.70;99.90;;;;;;4972981;28;20043;-86
2022/01/19 16:38:29;;;;;;;25.95;5.38;;;6.80;99.90;;;;;;4972824;28;20526;-83
2022/01/19 16:40:55;;;;;;;33.58;6.40;;;6.80;99.90;;;;;;4974276;28;20078;-85
2022/01/19 16:43:23;;;;;;;32.35;6.05;;;6.80;99.90;;;;;;4974609;28;20434;-85
2022/01/19 16:45:49;;;;;;;36.38;6.18;;;6.80;99.90;;;;;;4972940;28;20073;-85
2022/01/19 16:48:20;;;;;;;33.28;5.32;;;6.90;99.90;;;;;;4973492;28;20126;-83
2022/01/19 16:50:52;;;;;;;31.80;6.25;;;6.90;99.90;;;;;;4972052;28;20043;-86
2022/01/19 16:53:19;;;;;;;37.58;5.95;;;6.90;99.90;;;;;;4971854;28;20129;-86
2022/01/19 16:55:47;;;;;;;24.55;4.85;;;6.90;99.90;;;;;;4973681;28;20450;-85
2022/01/19 16:58:15;;;;;;;25.17;4.07;;;6.90;99.90;;;;;;4975245;28;20054;-86
2022/01/19 17:00:41;;;;;;;30.00;4.78;;;6.80;99.90;;;;;;4975437;28;20361;-86
2022/01/19 17:03:07;;;;;;;31.27;4.65;;;6.80;99.90;;;;;;4959779;28;20093;-86
2022/01/19 17:05:32;;;;;;;28.05;4.57;;;6.70;99.90;;;;;;4975432;28;20442;-85
2022/01/19 17:07:58;;;;;;;26.15;4.07;;;6.70;99.90;;;;;;4975262;28;20042;-87
2022/01/19 17:10:24;;;;;;;33.40;5.57;;;6.70;99.90;;;;;;4974883;28;20402;-86
2022/01/19 17:12:53;;;;;;;35.97;4.50;;;6.60;99.90;;;;;;4974643;28;20034;-86
2022/01/19 17:15:29;;;;;;;28.40;4.68;;;6.60;99.90;;;;;;4976116;28;20038;-86
2022/01/19 17:17:56;;;;;;;29.23;5.25;;;6.40;99.90;;;;;;4975254;28;20371;-85
2022/01/19 17:20:27;;;;;;;35.35;5.38;;;6.40;99.90;;;;;;4958593;28;20399;-83
2022/01/19 17:22:54;;;;;;;30.55;5.70;;;6.30;99.90;;;;;;4974849;28;20039;-86
2022/01/19 17:25:21;;;;;;;33.58;4.97;;;6.30;99.90;;;;;;4974848;28;20042;-84
2022/01/19 17:27:47;;;;;;;31.63;4.80;;;6.20;99.90;;;;;;4958492;28;20130;-85
2022/01/19 17:30:13;;;;;;;30.70;4.82;;;6.20;99.90;;;;;;4958317;28;20565;-84
2022/01/19 17:32:39;;;;;;;32.88;4.85;;;6.10;99.90;;;;;;4974278;28;20129;-84
2022/01/19 17:35:05;;;;;;;32.28;6.55;;;6.10;99.90;;;;;;4958510;28;20065;-82